Weather at Camp 14 Heliport

Public forecast

Using degrees Fahrenheit for public forecast. Weather courtesy of forecast.io.

Closest aviation weather report (METAR) to Camp 14 Heliport

Closest report is General WM J Fox Airfield, 16.5 nm (30.6 km) NE. Retrieved 2022/01/18 15:56 UTC (14 minutes ago):

KWJF 181556Z 00000KT 10SM CLR 07/04 A3006 RMK AO2 SLP184 T00670044

Closest aviation forecast (TAF) to Camp 14 Heliport

Closest forecast is General WM J Fox Airfield, 16.5 nm (30.6 km) NE. Retrieved 2022/01/18 12:36 UTC (4 hours ago):

TAF KWJF 181134Z 1812/1912 24011KT P6SM OVC070 FM181900 26010KT P6SM BKN080 FM190000 26008KT P6SM SCT200